»·PEaware :: UAL1399 KPHX-KSAN

UAL1399 :: KPHX-KSAN

FLIGHT INFORMATION

Flight Status: Arrived
Operator:
United Airlines
More flights by this operator :: More flights under this callsign
Pilot: David C. (16084)
Aircraft: AIRBUS A320
(A320)
More flights by this aircraft type
Origin: KPHX Phoenix Sky Harbor Intl
United States
Destination: KSAN San Diego Intl-Lindbergh
United States
More flights between these airports :: More routes between these airports
Route: FYRBD1 MOHAK J2 HOGGZ LUCKI1
File this flight plan on PilotEdge
Remarks:
Altitude:
(Current/Filed)
32,000ft
Speed:
(Current/Filed)
468kts
Departed: 06-Feb-20 03:02 PM
Arrived: 06-Feb-20 03:49 PM
Distance/Time
Traveled:
264nm/0:47
Distance/Time
To Go:
Arrived

Flight Plot

Page will automatically refresh every two minutes.

Flight plan parsing failed; only flown route is shown


Map Options




Map Legend


Flown Route
Filed Route
Departure Airport
Arrival Airport
Navaid (VOR, NDB)
Fix

Horizontal Profiles

Position Reports

Time Latitude Longitude Heading Altitude Ground
Speed
06-Feb-20 14:26 33.434391 -112.013288 288 1118ft 0kts
06-Feb-20 14:27 33.434391 -112.013288 288 1118ft 0kts
06-Feb-20 14:28 33.434391 -112.013288 288 1118ft 0kts
06-Feb-20 14:28 33.434391 -112.013288 288 1118ft 0kts
06-Feb-20 14:30 33.434391 -112.013288 288 1118ft 0kts
06-Feb-20 14:31 33.434391 -112.013288 288 1118ft 0kts
06-Feb-20 14:31 33.434391 -112.013288 288 1118ft 0kts
06-Feb-20 14:32 33.434391 -112.013288 288 1118ft 0kts
06-Feb-20 14:33 33.434391 -112.013288 288 1118ft 0kts
06-Feb-20 14:34 33.434391 -112.013288 288 1118ft 0kts
06-Feb-20 14:35 33.434391 -112.013288 288 1118ft 0kts
06-Feb-20 14:37 33.434391 -112.013288 288 1118ft 0kts
06-Feb-20 14:37 33.434391 -112.013288 288 1118ft 0kts
06-Feb-20 14:38 33.434391 -112.013288 288 1118ft 0kts
06-Feb-20 14:39 33.434391 -112.013288 288 1118ft 0kts
06-Feb-20 14:40 33.434391 -112.013288 288 1118ft 0kts
06-Feb-20 14:41 33.434391 -112.013288 288 1118ft 0kts
06-Feb-20 14:42 33.434391 -112.013288 288 1118ft 0kts
06-Feb-20 14:43 33.434391 -112.013288 288 1118ft 0kts
06-Feb-20 14:44 33.434391 -112.013288 288 1118ft 0kts
06-Feb-20 14:45 33.434391 -112.013288 288 1118ft 0kts
06-Feb-20 14:46 33.434299 -112.013094 280 1118ft 2kts
06-Feb-20 14:47 33.434209 -112.012431 260 1118ft 2kts
06-Feb-20 14:48 33.434342 -112.012053 238 1118ft 0kts
06-Feb-20 14:49 33.434342 -112.012053 238 1118ft 0kts
06-Feb-20 14:50 33.434342 -112.012053 238 1118ft 0kts
06-Feb-20 14:51 33.433618 -112.012317 173 1118ft 4kts
06-Feb-20 14:52 33.433226 -112.012256 167 1118ft 7kts
06-Feb-20 14:53 33.432874 -112.007485 91 1118ft 18kts
06-Feb-20 14:54 33.432829 -112.001344 90 1118ft 18kts
06-Feb-20 14:55 33.432850 -111.995779 91 1118ft 0kts
06-Feb-20 14:56 33.432108 -111.994082 89 1118ft 12kts
06-Feb-20 14:57 33.432070 -111.993786 109 1118ft 0kts
06-Feb-20 14:58 33.432070 -111.993786 109 1118ft 0kts
06-Feb-20 14:59 33.432059 -111.993752 110 1118ft 2kts
06-Feb-20 15:00 33.431046 -111.995353 270 1118ft 40kts
06-Feb-20 15:01 33.431770 -112.044460 269 2439ft 194kts
06-Feb-20 15:02 33.417077 -112.108915 250 5388ft 213kts
06-Feb-20 15:03 33.382450 -112.176552 204 7671ft 280kts
06-Feb-20 15:04 33.302310 -112.159821 165 10503ft 316kts
06-Feb-20 15:05 33.216094 -112.184392 236 11649ft 363kts
06-Feb-20 15:06 33.190197 -112.305094 252 12718ft 401kts
06-Feb-20 15:07 33.123617 -112.416486 236 14491ft 420kts
06-Feb-20 15:08 33.051031 -112.528384 236 16102ft 431kts
06-Feb-20 15:09 32.977019 -112.642627 238 17579ft 440kts
06-Feb-20 15:10 32.942503 -112.778485 264 18928ft 433kts
06-Feb-20 15:11 32.923946 -112.915145 265 21790ft 405kts
06-Feb-20 15:12 32.905862 -113.048285 266 23408ft 411kts
06-Feb-20 15:13 32.887279 -113.183665 266 24763ft 420kts
06-Feb-20 15:14 32.868097 -113.322085 266 25993ft 428kts
06-Feb-20 15:15 32.848416 -113.462918 266 27094ft 436kts
06-Feb-20 15:16 32.828217 -113.606215 266 28117ft 443kts
06-Feb-20 15:17 32.807515 -113.751873 265 29055ft 450kts
06-Feb-20 15:18 32.786281 -113.900158 265 29656ft 462kts
06-Feb-20 15:19 32.775100 -114.051261 274 30502ft 456kts
06-Feb-20 15:20 32.780201 -114.200640 277 31418ft 452kts
06-Feb-20 15:21 32.786061 -114.349738 278 32081ft 451kts
06-Feb-20 15:22 32.816311 -114.490862 292 32085ft 441kts
06-Feb-20 15:23 32.854342 -114.629343 292 32086ft 441kts
06-Feb-20 15:24 32.878514 -114.772912 273 32090ft 455kts
06-Feb-20 15:25 32.875018 -114.923676 273 32090ft 455kts
06-Feb-20 15:26 32.871522 -115.073372 273 32067ft 455kts
06-Feb-20 15:27 32.867829 -115.224493 273 31087ft 456kts
06-Feb-20 15:28 32.860047 -115.376102 265 27885ft 467kts
06-Feb-20 15:29 32.837672 -115.528663 263 24507ft 472kts
06-Feb-20 15:30 32.813045 -115.678961 262 21975ft 454kts
06-Feb-20 15:31 32.789364 -115.822600 262 19502ft 437kts
06-Feb-20 15:32 32.776545 -115.964106 267 16621ft 425kts
06-Feb-20 15:33 32.766236 -116.100460 267 14519ft 396kts
06-Feb-20 15:34 32.756847 -116.222563 267 13596ft 347kts
06-Feb-20 15:35 32.748538 -116.330257 267 12517ft 316kts
06-Feb-20 15:36 32.740614 -116.432755 267 10864ft 307kts
06-Feb-20 15:37 32.732743 -116.528483 265 9948ft 278kts
06-Feb-20 15:38 32.723919 -116.618926 264 8523ft 272kts
06-Feb-20 15:39 32.716108 -116.707780 265 7015ft 271kts
06-Feb-20 15:40 32.709413 -116.793467 265 6063ft 235kts
06-Feb-20 15:41 32.693923 -116.861309 251 5273ft 189kts
06-Feb-20 15:42 32.676820 -116.918037 253 4500ft 181kts
06-Feb-20 15:43 32.681184 -116.974704 286 3679ft 175kts
06-Feb-20 15:44 32.694761 -117.030023 285 2779ft 171kts
06-Feb-20 15:45 32.707664 -117.082843 285 1973ft 148kts
06-Feb-20 15:46 32.718150 -117.126033 284 1139ft 134kts
06-Feb-20 15:47 32.728543 -117.168861 283 268ft 135kts
06-Feb-20 15:48 32.735160 -117.198109 243 24ft 18kts
06-Feb-20 15:49 32.734949 -117.198524 236 25ft 0kts
06-Feb-20 15:50 32.735299 -117.201771 260 25ft 14kts
06-Feb-20 15:51 32.734482 -117.203438 228 23ft 0kts
06-Feb-20 15:52 32.734482 -117.203438 228 23ft 0kts
06-Feb-20 15:53 32.734482 -117.203438 228 23ft 0kts
06-Feb-20 15:54 32.734482 -117.203438 228 23ft 0kts
06-Feb-20 15:55 32.734482 -117.203438 228 23ft 0kts
06-Feb-20 15:56 32.734482 -117.203438 228 23ft 0kts
06-Feb-20 15:57 32.734482 -117.203438 228 23ft 0kts
06-Feb-20 15:58 32.734482 -117.203438 228 23ft 0kts
06-Feb-20 15:59 32.734482 -117.203438 228 23ft 0kts

Navigation Log

Ident Type
Flight plan parsing failed, navigation log unavailable